createdAt,value
2023-01-13T00:00:16.603Z,98336.41
2023-01-13T00:02:43.881Z,98333.94
2023-01-13T00:05:11.387Z,98348.69
2023-01-13T00:07:40.279Z,98336.59
2023-01-13T00:10:11.380Z,98344.16
2023-01-13T00:12:42.376Z,98345.94
2023-01-13T00:15:10.956Z,98342.53
2023-01-13T00:17:39.014Z,98342.59
2023-01-13T00:20:06.668Z,98345.94
2023-01-13T00:22:35.126Z,98337.31
2023-01-13T00:25:04.272Z,98338.16
2023-01-13T00:27:31.713Z,98340.03
2023-01-13T00:29:58.732Z,98351.06
2023-01-13T00:32:25.714Z,98336.53
2023-01-13T00:34:53.012Z,98344.28
2023-01-13T00:37:20.018Z,98327.94
2023-01-13T00:39:47.230Z,98327.19
2023-01-13T00:42:32.786Z,98333.25
2023-01-13T00:44:59.700Z,98333.81
2023-01-13T00:47:26.844Z,98331.53
2023-01-13T00:49:53.691Z,98338.19
2023-01-13T00:52:20.613Z,98326.13
2023-01-13T00:54:47.520Z,98329.63
2023-01-13T00:57:15.457Z,98332.44
2023-01-13T00:59:42.408Z,98324.72
2023-01-13T01:02:09.351Z,98321.38
2023-01-13T01:04:36.338Z,98316.22
2023-01-13T01:07:03.239Z,98325.56
2023-01-13T01:09:33.519Z,98317.06
2023-01-13T01:12:01.195Z,98324.72
2023-01-13T01:14:28.458Z,98317.91
2023-01-13T01:16:55.406Z,98318.63
2023-01-13T01:19:22.322Z,98315.25
2023-01-13T01:21:49.197Z,98321.19
2023-01-13T01:24:16.899Z,98322.94
2023-01-13T01:26:43.843Z,98324.69
2023-01-13T01:29:13.855Z,98322.16
2023-01-13T01:31:40.888Z,98322.31
2023-01-13T01:34:07.861Z,98328.94
2023-01-13T01:36:36.331Z,98315.25
2023-01-13T01:39:04.499Z,98331.56
2023-01-13T01:41:33.928Z,98322.09
2023-01-13T01:44:07.534Z,98318.63
2023-01-13T01:46:40.865Z,98315.88
2023-01-13T01:49:10.647Z,98317.69
2023-01-13T01:51:45.872Z,98316.50
2023-01-13T01:54:19.349Z,98313.94
2023-01-13T01:56:47.359Z,98317.53
2023-01-13T01:59:15.050Z,98321.03
2023-01-13T02:01:44.216Z,98311.69
2023-01-13T02:04:22.861Z,98318.63
2023-01-13T02:06:50.927Z,98314.41
2023-01-13T02:09:18.023Z,98316.16
2023-01-13T02:12:03.706Z,98310.91
2023-01-13T02:14:32.872Z,98317.00
2023-01-13T02:17:21.429Z,98315.13
2023-01-13T02:19:57.125Z,98320.41
2023-01-13T02:23:04.403Z,98314.34
2023-01-13T02:25:46.040Z,98316.03
2023-01-13T02:29:14.742Z,98313.56
2023-01-13T02:31:48.383Z,98317.06
2023-01-13T02:34:42.598Z,98320.41
2023-01-13T02:37:26.160Z,98322.97
2023-01-13T02:39:59.842Z,98311.69
2023-01-13T02:43:14.437Z,98308.34
2023-01-13T02:46:03.338Z,98314.34
2023-01-13T02:48:33.290Z,98305.69
2023-01-13T02:51:06.021Z,98311.63
2023-01-13T02:53:38.882Z,98314.34
2023-01-13T02:56:08.298Z,98308.13
2023-01-13T02:58:38.381Z,98308.28
2023-01-13T03:01:05.543Z,98309.13
2023-01-13T03:03:32.564Z,98318.53
2023-01-13T03:06:21.555Z,98309.81
2023-01-13T03:09:03.316Z,98308.97
2023-01-13T03:11:39.970Z,98314.13
2023-01-13T03:14:16.565Z,98314.13
2023-01-13T03:16:59.728Z,98320.13
2023-01-13T03:20:07.392Z,98319.25
2023-01-13T03:22:41.683Z,98311.50
2023-01-13T03:25:23.080Z,98316.78
2023-01-13T03:28:01.274Z,98314.97
2023-01-13T03:30:37.640Z,98315.75
2023-01-13T03:33:17.228Z,98311.50
2023-01-13T03:35:47.757Z,98300.19
2023-01-13T03:38:33.074Z,98306.19
2023-01-13T03:41:06.733Z,98294.91
2023-01-13T03:44:10.444Z,98309.59
2023-01-13T03:46:48.208Z,98314.56
2023-01-13T03:49:20.588Z,98309.47
2023-01-13T03:51:55.264Z,98312.88
2023-01-13T03:54:26.159Z,98321.53
2023-01-13T03:56:59.434Z,98311.97
2023-01-13T03:59:36.231Z,98328.38
2023-01-13T04:02:12.957Z,98322.31
2023-01-13T04:04:43.232Z,98327.59
2023-01-13T04:07:31.094Z,98330.16
2023-01-13T04:10:01.778Z,98323.34
2023-01-13T04:12:49.636Z,98334.47
2023-01-13T04:15:18.952Z,98327.66
2023-01-13T04:17:45.937Z,98335.28
2023-01-13T04:20:13.065Z,98332.75
2023-01-13T04:22:39.919Z,98330.16
2023-01-13T04:25:07.584Z,98337.03
2023-01-13T04:27:34.434Z,98339.63
2023-01-13T04:30:01.320Z,98346.38
2023-01-13T04:32:28.319Z,98344.00
2023-01-13T04:34:55.162Z,98343.31
2023-01-13T04:37:22.132Z,98342.31
2023-01-13T04:39:49.039Z,98347.56
2023-01-13T04:42:15.947Z,98345.66
2023-01-13T04:44:43.043Z,98351.69
2023-01-13T04:47:09.924Z,98348.19
2023-01-13T04:49:36.857Z,98349.13
2023-01-13T04:52:04.140Z,98354.31
2023-01-13T04:54:31.072Z,98355.31
2023-01-13T04:56:57.905Z,98352.56
2023-01-13T04:59:24.832Z,98357.06
2023-01-13T05:01:51.799Z,98362.03
2023-01-13T05:04:18.769Z,98362.03
2023-01-13T05:06:45.665Z,98361.88
2023-01-13T05:09:13.619Z,98367.75
2023-01-13T05:11:59.231Z,98363.53
2023-01-13T05:14:45.867Z,98366.91
2023-01-13T05:17:25.196Z,98365.34
2023-01-13T05:19:52.299Z,98362.69
2023-01-13T05:22:37.530Z,98361.88
2023-01-13T05:25:23.237Z,98367.19
2023-01-13T05:27:52.258Z,98371.28
2023-01-13T05:30:21.862Z,98373.03
2023-01-13T05:32:49.219Z,98366.19
2023-01-13T05:35:16.894Z,98378.06
2023-01-13T05:37:44.801Z,98378.06
2023-01-13T05:40:33.132Z,98377.16
2023-01-13T05:43:20.379Z,98377.16
2023-01-13T05:46:02.329Z,98366.94
2023-01-13T05:48:35.265Z,98371.09
2023-01-13T05:51:04.085Z,98375.34
2023-01-13T05:53:31.865Z,98378.75
2023-01-13T05:55:59.450Z,98375.41
2023-01-13T05:58:28.028Z,98381.28
2023-01-13T06:01:03.332Z,98382.81
2023-01-13T06:03:30.572Z,98394.03
2023-01-13T06:06:01.596Z,98386.31
2023-01-13T06:08:29.227Z,98385.34
2023-01-13T06:10:56.513Z,98387.94
2023-01-13T06:13:25.330Z,98386.94
2023-01-13T06:15:56.135Z,98395.44
2023-01-13T06:18:23.059Z,98405.66
2023-01-13T06:20:49.939Z,98407.47
2023-01-13T06:23:16.885Z,98404.72
2023-01-13T06:25:50.351Z,98412.47
2023-01-13T06:28:17.355Z,98412.56
2023-01-13T06:30:49.496Z,98415.06
2023-01-13T06:33:22.593Z,98414.31
2023-01-13T06:35:55.398Z,98414.94
2023-01-13T06:38:25.366Z,98430.44
2023-01-13T06:40:52.416Z,98425.13
2023-01-13T06:43:19.344Z,98416.63
2023-01-13T06:45:54.936Z,98427.69
2023-01-13T06:48:29.123Z,98423.59
2023-01-13T06:50:56.092Z,98431.91
2023-01-13T06:53:22.967Z,98431.28
2023-01-13T06:55:50.091Z,98440.63
2023-01-13T06:58:17.406Z,98432.94
2023-01-13T07:00:44.551Z,98429.59
2023-01-13T07:03:14.622Z,98427.91
2023-01-13T07:05:43.348Z,98440.97
2023-01-13T07:08:10.731Z,98440.81
2023-01-13T07:10:38.169Z,98443.47
2023-01-13T07:13:24.884Z,98446.84
2023-01-13T07:16:00.161Z,98433.94
2023-01-13T07:18:28.945Z,98445.75
2023-01-13T07:21:07.554Z,98439.72
2023-01-13T07:23:36.867Z,98451.50
2023-01-13T07:26:04.673Z,98446.41
2023-01-13T07:28:32.128Z,98446.16
2023-01-13T07:30:59.155Z,98448.72
2023-01-13T07:33:26.114Z,98451.66
2023-01-13T07:35:58.279Z,98449.00
2023-01-13T07:38:25.672Z,98445.50
2023-01-13T07:40:52.784Z,98449.72
2023-01-13T07:43:34.932Z,98448.03
2023-01-13T07:46:06.702Z,98458.22
2023-01-13T07:48:35.367Z,98455.25
2023-01-13T07:51:03.851Z,98458.09
2023-01-13T07:53:30.818Z,98463.28
2023-01-13T07:55:58.957Z,98464.03
2023-01-13T07:58:26.831Z,98458.09
2023-01-13T08:00:54.218Z,98463.91
2023-01-13T08:03:21.682Z,98472.50
2023-01-13T08:05:48.824Z,98480.28
2023-01-13T08:08:16.166Z,98477.06
2023-01-13T08:10:43.077Z,98475.41
2023-01-13T08:13:21.245Z,98479.34
2023-01-13T08:15:51.097Z,98484.50
2023-01-13T08:18:22.081Z,98486.09
2023-01-13T08:20:50.047Z,98484.91
2023-01-13T08:23:17.002Z,98486.28
2023-01-13T08:25:44.088Z,98484.69
2023-01-13T08:28:11.271Z,98495.59
2023-01-13T08:30:38.332Z,98491.22
2023-01-13T08:33:11.322Z,98494.84
2023-01-13T08:35:42.368Z,98485.69
2023-01-13T08:38:09.419Z,98494.84
2023-01-13T08:40:36.924Z,98496.78
2023-01-13T08:43:04.411Z,98477.66
2023-01-13T08:45:31.543Z,98484.22
2023-01-13T08:47:58.427Z,98481.63
2023-01-13T08:50:25.436Z,98478.22
2023-01-13T08:52:52.363Z,98489.50
2023-01-13T08:55:19.339Z,98493.16
2023-01-13T08:57:46.348Z,98496.31
2023-01-13T09:00:14.074Z,98495.59
2023-01-13T09:02:41.088Z,98492.25
2023-01-13T09:05:09.300Z,98493.72
2023-01-13T09:07:38.636Z,98493.72
2023-01-13T09:10:08.195Z,98487.84
2023-01-13T09:12:54.734Z,98479.19
2023-01-13T09:15:22.019Z,98479.19
2023-01-13T09:17:48.981Z,98485.06
2023-01-13T09:20:16.071Z,98470.75
2023-01-13T09:22:43.019Z,98473.72
2023-01-13T09:25:10.478Z,98478.06
2023-01-13T09:27:37.431Z,98476.41
2023-01-13T09:30:06.046Z,98478.13
2023-01-13T09:32:33.242Z,98471.09
2023-01-13T09:35:00.355Z,98474.00
2023-01-13T09:37:38.689Z,98470.53
2023-01-13T09:40:10.854Z,98473.25
2023-01-13T09:43:09.288Z,98469.97
2023-01-13T10:17:43.723Z,98439.50
2023-01-13T10:20:16.642Z,98437.13
2023-01-13T10:22:48.472Z,98440.63
2023-01-13T10:25:54.900Z,98430.00
2023-01-13T10:28:24.094Z,98435.88
2023-01-13T10:30:51.535Z,98425.81
2023-01-13T10:33:23.081Z,98424.38
2023-01-13T10:35:52.896Z,98409.38
2023-01-13T10:38:22.924Z,98397.13
2023-01-13T10:40:52.847Z,98393.44
2023-01-13T10:43:19.804Z,98400.69
2023-01-13T10:46:00.939Z,98403.75
2023-01-13T10:48:36.882Z,98393.09
2023-01-13T10:51:19.728Z,98394.91
2023-01-13T10:53:59.029Z,98390.97
2023-01-13T10:56:32.233Z,98385.34
2023-01-13T10:59:16.233Z,98383.91
2023-01-13T11:01:55.169Z,98389.09
2023-01-13T11:04:30.205Z,98375.03
2023-01-13T11:06:58.083Z,98380.72
2023-01-13T11:09:27.632Z,98374.63
2023-01-13T11:11:56.595Z,98369.69
2023-01-13T11:14:42.995Z,98377.16
2023-01-13T11:17:23.556Z,98385.06
2023-01-13T11:19:58.373Z,98391.38
2023-01-13T11:22:32.121Z,98376.41
2023-01-13T11:25:06.027Z,98374.19
2023-01-13T11:27:56.229Z,98378.91
2023-01-13T11:30:32.185Z,98386.66
2023-01-13T11:33:14.226Z,98380.50
2023-01-13T11:35:46.132Z,98379.72
2023-01-13T11:38:33.720Z,98382.25
2023-01-13T11:41:23.763Z,98381.44
2023-01-13T11:44:16.417Z,98382.72
2023-01-13T11:46:43.655Z,98381.44
2023-01-13T11:49:26.589Z,98384.84
2023-01-13T11:52:04.415Z,98377.16
2023-01-13T11:54:46.462Z,98370.31
2023-01-13T11:57:37.752Z,98370.53
2023-01-13T12:00:28.191Z,98382.31
2023-01-13T12:03:14.291Z,98381.78
2023-01-13T12:05:48.509Z,98387.06
2023-01-13T12:08:26.216Z,98392.31
2023-01-13T12:11:05.109Z,98395.88
2023-01-13T12:13:43.063Z,98397.94
2023-01-13T12:16:13.556Z,98401.88
2023-01-13T12:19:16.856Z,98402.72
2023-01-13T12:21:52.936Z,98408.97
2023-01-13T12:24:36.429Z,98409.88
2023-01-13T12:27:11.834Z,98420.53
2023-01-13T12:29:39.891Z,98412.91
2023-01-13T12:32:24.475Z,98424.94
2023-01-13T12:35:20.157Z,98421.91
2023-01-13T12:37:52.645Z,98413.09
2023-01-13T12:40:34.849Z,98416.81
2023-01-13T12:43:40.239Z,98413.84
2023-01-13T12:46:19.685Z,98418.72
2023-01-13T12:48:46.651Z,98417.13
2023-01-13T12:51:30.122Z,98410.50
2023-01-13T12:53:58.559Z,98407.66
2023-01-13T12:56:37.320Z,98395.94
2023-01-13T12:59:34.408Z,98407.53
2023-01-13T13:02:10.810Z,98406.91
2023-01-13T13:04:54.318Z,98407.59
2023-01-13T13:07:30.033Z,98408.44
2023-01-13T13:10:15.096Z,98396.09
2023-01-13T13:13:00.289Z,98405.03
2023-01-13T13:15:34.110Z,98404.94
2023-01-13T13:18:21.832Z,98411.56
2023-01-13T13:21:09.256Z,98421.00
2023-01-13T13:24:03.036Z,98411.56
2023-01-13T13:26:45.796Z,98416.41
2023-01-13T13:29:28.815Z,98408.25
2023-01-13T13:31:55.680Z,98413.09
2023-01-13T13:34:22.601Z,98411.63
2023-01-13T13:37:14.383Z,98415.00
2023-01-13T13:40:01.624Z,98410.75
2023-01-13T13:42:35.696Z,98411.72
2023-01-13T13:45:30.689Z,98418.19
2023-01-13T13:47:57.676Z,98417.94
2023-01-13T13:50:24.710Z,98413.63
2023-01-13T13:53:12.100Z,98420.69
2023-01-13T13:55:39.288Z,98419.03
2023-01-13T13:58:17.662Z,98412.31
2023-01-13T14:00:48.073Z,98415.75
2023-01-13T14:03:38.996Z,98409.59
2023-01-13T14:06:07.898Z,98414.81
2023-01-13T14:08:38.499Z,98413.16
2023-01-13T14:11:32.410Z,98415.16
2023-01-13T14:14:02.631Z,98420.31
2023-01-13T14:16:29.980Z,98419.34
2023-01-13T14:18:57.067Z,98424.66
2023-01-13T14:21:29.041Z,98420.00
2023-01-13T14:24:05.746Z,98429.25
2023-01-13T14:26:32.788Z,98424.00
2023-01-13T14:29:05.252Z,98430.09
2023-01-13T14:31:32.996Z,98436.19
2023-01-13T14:34:03.173Z,98435.44
2023-01-13T14:36:51.374Z,98447.59
2023-01-13T14:39:18.216Z,98443.44
2023-01-13T14:41:48.253Z,98459.91
2023-01-13T14:44:28.356Z,98456.06
2023-01-13T14:46:58.726Z,98451.72
2023-01-13T14:49:25.633Z,98454.50
2023-01-13T14:51:53.381Z,98447.56
2023-01-13T14:54:42.287Z,98442.44
2023-01-13T14:57:25.338Z,98453.19
2023-01-13T14:59:56.427Z,98454.09
2023-01-13T15:02:29.644Z,98447.91
2023-01-13T15:04:59.449Z,98442.00
2023-01-13T15:07:28.846Z,98441.25
2023-01-13T15:10:02.010Z,98440.47
2023-01-13T15:12:40.732Z,98442.44
2023-01-13T15:15:25.981Z,98451.81
2023-01-13T15:17:53.559Z,98449.25
2023-01-13T15:20:23.197Z,98442.44
2023-01-13T15:22:51.948Z,98445.22
2023-01-13T15:25:20.280Z,98446.13
2023-01-13T15:27:51.118Z,98450.53
2023-01-13T15:30:22.342Z,98443.84
2023-01-13T15:32:49.318Z,98442.09
2023-01-13T15:35:17.384Z,98449.03
2023-01-13T15:37:45.854Z,98450.53
2023-01-13T15:40:19.947Z,98448.31
2023-01-13T15:43:06.184Z,98447.50
2023-01-13T15:45:54.237Z,98454.19
2023-01-13T15:48:23.301Z,98456.94
2023-01-13T15:50:50.885Z,98448.41
2023-01-13T15:53:18.155Z,98450.16
2023-01-13T15:55:49.376Z,98450.06
2023-01-13T15:58:28.382Z,98453.41
2023-01-13T16:00:55.867Z,98459.28
2023-01-13T16:03:23.053Z,98465.00
2023-01-13T16:05:49.970Z,98471.22
2023-01-13T16:08:16.931Z,98472.53
2023-01-13T16:10:45.106Z,98473.47
2023-01-13T16:13:16.131Z,98473.16
2023-01-13T16:15:48.797Z,98486.09
2023-01-13T16:18:21.377Z,98481.84
2023-01-13T16:20:52.886Z,98487.06
2023-01-13T16:23:20.528Z,98488.53
2023-01-13T16:25:47.878Z,98485.41
2023-01-13T16:28:28.256Z,98482.44
2023-01-13T16:30:55.249Z,98478.94
2023-01-13T16:33:22.153Z,98488.44
2023-01-13T16:36:10.661Z,98487.47
2023-01-13T16:38:36.950Z,98495.31
2023-01-13T16:41:03.957Z,98502.78
2023-01-13T16:43:32.133Z,98495.69
2023-01-13T16:45:59.569Z,98502.47
2023-01-13T16:48:26.496Z,98503.13
2023-01-13T16:50:53.738Z,98505.91
2023-01-13T16:53:20.637Z,98500.81
2023-01-13T16:55:47.647Z,98504.44
2023-01-13T16:58:20.184Z,98502.91
2023-01-13T17:00:47.798Z,98510.00
2023-01-13T17:03:15.773Z,98500.53
2023-01-13T17:05:45.410Z,98501.63
2023-01-13T17:08:17.850Z,98495.66
2023-01-13T17:10:48.161Z,98498.22
2023-01-13T17:13:16.981Z,98494.84
2023-01-13T17:15:45.416Z,98495.66
2023-01-13T17:18:13.700Z,98500.41
2023-01-13T17:20:41.046Z,98501.00
2023-01-13T17:23:08.063Z,98496.59
2023-01-13T17:25:35.269Z,98492.63
2023-01-13T17:28:02.086Z,98479.81
2023-01-13T17:30:29.052Z,98486.00
2023-01-13T17:32:56.036Z,98483.50
2023-01-13T17:35:25.246Z,98478.47
2023-01-13T17:37:53.920Z,98481.53
2023-01-13T17:40:21.594Z,98469.56
2023-01-13T17:42:48.474Z,98479.00
2023-01-13T17:45:16.631Z,98477.09
2023-01-13T17:47:43.533Z,98482.38
2023-01-13T17:50:10.860Z,98480.13
2023-01-13T17:52:37.911Z,98470.63
2023-01-13T17:55:05.195Z,98481.25
2023-01-13T17:57:32.240Z,98473.59
2023-01-13T17:59:59.759Z,98477.00
2023-01-13T18:02:26.960Z,98485.38
2023-01-13T18:04:54.178Z,98487.97
2023-01-13T18:07:21.100Z,98491.47
2023-01-13T18:09:47.969Z,98492.41
2023-01-13T18:12:15.079Z,98488.19
2023-01-13T18:14:42.177Z,98482.81
2023-01-13T18:17:09.211Z,98484.63
2023-01-13T18:19:54.901Z,98480.81
2023-01-13T18:22:40.749Z,98477.31
2023-01-13T18:25:31.337Z,98485.09
2023-01-13T18:28:01.626Z,98477.25
2023-01-13T18:30:28.516Z,98486.00
2023-01-13T18:32:56.104Z,98482.13
2023-01-13T18:35:23.045Z,98488.00
2023-01-13T18:37:50.043Z,98490.50
2023-01-13T18:40:17.485Z,98497.94
2023-01-13T18:42:56.309Z,98496.75
2023-01-13T18:45:29.628Z,98496.94
2023-01-13T18:47:59.270Z,98495.88
2023-01-13T18:50:28.284Z,98494.91
2023-01-13T18:52:55.683Z,98493.91
2023-01-13T18:55:23.266Z,98484.06
2023-01-13T18:57:51.116Z,98489.03
2023-01-13T19:00:20.420Z,98487.34
2023-01-13T19:02:47.971Z,98485.47
2023-01-13T19:05:14.971Z,98479.69
2023-01-13T19:07:43.511Z,98472.22
2023-01-13T19:10:13.040Z,98470.81
2023-01-13T19:12:40.226Z,98468.09
2023-01-13T19:15:08.223Z,98471.03
2023-01-13T19:17:35.967Z,98465.59
2023-01-13T19:20:04.646Z,98471.81
2023-01-13T19:22:35.032Z,98469.22
2023-01-13T19:25:03.151Z,98471.72
2023-01-13T19:27:30.648Z,98473.56
2023-01-13T19:30:00.681Z,98482.22
2023-01-13T19:32:28.850Z,98486.28
2023-01-13T19:34:59.414Z,98477.38
2023-01-13T19:37:34.349Z,98474.25
2023-01-13T19:40:01.386Z,98476.97
2023-01-13T19:42:46.874Z,98468.22
2023-01-13T19:45:29.448Z,98481.22
2023-01-13T19:47:57.891Z,98475.63
2023-01-13T19:50:25.601Z,98478.88
2023-01-13T19:52:52.850Z,98482.41
2023-01-13T19:55:20.128Z,98465.72
2023-01-13T19:57:47.167Z,98474.94
2023-01-13T20:00:18.445Z,98475.75
2023-01-13T20:02:49.438Z,98469.75
2023-01-13T20:05:21.446Z,98470.25
2023-01-13T20:07:50.089Z,98464.28
2023-01-13T20:10:18.763Z,98473.78
2023-01-13T20:12:45.918Z,98469.66
2023-01-13T20:15:12.831Z,98468.91
2023-01-13T20:17:41.504Z,98467.09
2023-01-13T20:20:10.557Z,98466.41
2023-01-13T20:22:39.480Z,98467.09
2023-01-13T20:25:07.473Z,98455.56
2023-01-13T20:27:34.556Z,98455.66
2023-01-13T20:30:01.416Z,98462.50
2023-01-13T20:32:28.242Z,98461.47
2023-01-13T20:34:55.157Z,98464.44
2023-01-13T20:37:22.792Z,98469.09
2023-01-13T20:39:49.765Z,98461.53
2023-01-13T20:42:35.053Z,98466.53
2023-01-13T20:45:02.030Z,98468.47
2023-01-13T20:47:29.969Z,98474.41
2023-01-13T20:49:56.952Z,98475.13
2023-01-13T20:52:24.027Z,98475.34
2023-01-13T20:54:51.133Z,98473.72
2023-01-13T20:57:18.368Z,98463.75
2023-01-13T20:59:45.417Z,98469.91
2023-01-13T21:02:14.511Z,98471.53
2023-01-13T21:04:41.821Z,98475.16
2023-01-13T21:07:09.042Z,98480.06
2023-01-13T21:09:36.702Z,98488.69
2023-01-13T21:12:22.314Z,98484.16
2023-01-13T21:15:07.760Z,98486.81
2023-01-13T21:17:53.587Z,98488.09
2023-01-13T21:20:20.850Z,98491.94
2023-01-13T21:22:49.245Z,98495.66
2023-01-13T21:25:18.263Z,98491.47
2023-01-13T21:27:45.325Z,98493.06
2023-01-13T21:30:15.037Z,98489.72
2023-01-13T21:32:44.267Z,98489.66
2023-01-13T21:35:13.018Z,98487.38
2023-01-13T21:37:41.357Z,98488.69
2023-01-13T21:40:10.435Z,98478.53
2023-01-13T21:42:55.868Z,98470.47
2023-01-13T21:45:41.509Z,98464.22
2023-01-13T21:48:08.883Z,98465.72
2023-01-13T21:50:37.942Z,98463.75
2023-01-13T21:53:05.463Z,98457.84
2023-01-13T21:55:33.006Z,98457.59
2023-01-13T21:58:10.403Z,98454.22
2023-01-13T22:00:38.267Z,98457.66
2023-01-13T22:03:06.345Z,98467.56
2023-01-13T22:05:33.326Z,98466.44
2023-01-13T22:08:00.728Z,98465.22
2023-01-13T22:10:30.046Z,98460.72
2023-01-13T22:13:00.208Z,98463.63
2023-01-13T22:15:29.381Z,98470.47
2023-01-13T22:17:56.691Z,98459.06
2023-01-13T22:20:23.840Z,98457.22
2023-01-13T22:22:50.799Z,98463.75
2023-01-13T22:25:20.267Z,98459.44
2023-01-13T22:27:49.234Z,98461.19
2023-01-13T22:30:19.155Z,98462.19
2023-01-13T22:32:46.528Z,98460.88
2023-01-13T22:35:15.105Z,98456.47
2023-01-13T22:37:42.763Z,98464.31
2023-01-13T22:40:12.189Z,98455.03
2023-01-13T22:42:42.952Z,98460.44
2023-01-13T22:45:12.196Z,98461.34
2023-01-13T22:47:39.216Z,98454.19
2023-01-13T22:50:07.675Z,98445.97
2023-01-13T22:52:35.341Z,98450.00
2023-01-13T22:55:02.305Z,98450.81
2023-01-13T22:57:36.708Z,98454.47
2023-01-13T23:00:15.067Z,98445.13
2023-01-13T23:02:42.156Z,98454.94
2023-01-13T23:05:09.412Z,98456.41
2023-01-13T23:07:36.301Z,98454.34
2023-01-13T23:10:04.445Z,98456.09
2023-01-13T23:12:31.454Z,98452.50
2023-01-13T23:14:58.312Z,98456.84
2023-01-13T23:17:25.195Z,98450.81
2023-01-13T23:19:52.228Z,98446.47
2023-01-13T23:22:19.385Z,98447.16
2023-01-13T23:24:46.311Z,98443.38
2023-01-13T23:27:13.334Z,98441.56
2023-01-13T23:29:40.404Z,98444.69
2023-01-13T23:32:07.462Z,98442.69
2023-01-13T23:34:34.472Z,98445.19
2023-01-13T23:37:01.435Z,98441.47
2023-01-13T23:39:28.537Z,98440.16
2023-01-13T23:41:55.824Z,98435.91
2023-01-13T23:44:22.799Z,98441.31
2023-01-13T23:46:49.702Z,98431.66
2023-01-13T23:49:16.635Z,98439.34
2023-01-13T23:51:43.557Z,98434.03
2023-01-13T23:54:10.482Z,98436.13
2023-01-13T23:56:39.690Z,98429.41
2023-01-13T23:59:07.021Z,98433.00
